Time;durP1;ratioP1;P1;durP2;ratioP2;P2;SDS_P1;SDS_P2;PMS_P1;PMS_P2;Temp;Humidity;BMP_temperature;BMP_pressure;BME280_temperature;BME280_humidity;BME280_pressure;Samples;Min_cycle;Max_cycle;Signal;HPM_P1;HPM_P2
2021/12/19 00:09:04;;;;;;;82.03;19.40;;;;;;;;;;5051705;28;43071;-84
2021/12/19 00:11:31;;;;;;;87.97;18.13;;;;;;;;;;5051597;28;43729;-84
2021/12/19 00:13:58;;;;;;;100.03;19.65;;;;;;;;;;5051052;28;45204;-84
2021/12/19 00:16:26;;;;;;;56.92;18.13;;;;;;;;;;5051484;28;44784;-83
2021/12/19 00:18:56;;;;;;;98.72;20.98;;;;;;;;;;5051257;28;43952;-84
2021/12/19 00:21:25;;;;;;;84.20;20.65;;;;;;;;;;5051750;28;20515;-84
2021/12/19 00:23:53;;;;;;;64.55;18.05;;;;;;;;;;5051444;28;43331;-84
2021/12/19 00:26:21;;;;;;;72.65;19.13;;;;;;;;;;5050669;28;43910;-84
2021/12/19 00:28:49;;;;;;;56.80;17.33;;;;;;;;;;5050821;28;44885;-84
2021/12/19 00:31:16;;;;;;;67.72;18.23;;;;;;;;;;5051527;28;43142;-84
2021/12/19 00:33:43;;;;;;;86.90;19.80;;;;;;;;;;5050410;28;44950;-84
2021/12/19 00:36:10;;;;;;;81.25;20.13;;;;;;;;;;5051466;28;45082;-84
2021/12/19 00:38:37;;;;;;;62.93;17.70;;;;;;;;;;5051396;28;43957;-84
2021/12/19 00:41:04;;;;;;;73.60;18.52;;;;;;;;;;5050509;28;44921;-84
2021/12/19 00:46:07;;;;;;;90.63;19.88;;;;;;;;;;5051113;28;41851;-84
2021/12/19 00:48:35;;;;;;;98.28;21.35;;;;;;;;;;5051187;28;20054;-85
2021/12/19 00:51:02;;;;;;;94.72;20.88;;;;;;;;;;5050912;28;44768;-84
2021/12/19 00:53:29;;;;;;;82.55;18.70;;;;;;;;;;5050986;28;44938;-84
2021/12/19 00:55:55;;;;;;;100.00;20.25;;;;;;;;;;5050520;28;44756;-84
2021/12/19 00:58:22;;;;;;;109.03;21.90;;;;;;;;;;5050641;28;44067;-84
2021/12/19 01:00:50;;;;;;;113.30;20.95;;;;;;;;;;5051311;28;42879;-84
2021/12/19 01:03:17;;;;;;;81.23;19.80;;;;;;;;;;5049614;28;41614;-84
2021/12/19 01:05:44;;;;;;;82.93;20.02;;;;;;;;;;5050862;28;42874;-84
2021/12/19 01:08:12;;;;;;;113.93;19.23;;;;;;;;;;5050546;28;44073;-84
2021/12/19 01:10:40;;;;;;;85.75;19.15;;;;;;;;;;5050102;28;43333;-84
2021/12/19 01:13:07;;;;;;;129.68;20.52;;;;;;;;;;5050074;28;44987;-84
2021/12/19 01:15:33;;;;;;;95.10;19.55;;;;;;;;;;5049687;28;42908;-84
2021/12/19 01:18:00;;;;;;;93.22;19.08;;;;;;;;;;5049902;28;43846;-84
2021/12/19 01:20:28;;;;;;;99.18;19.60;;;;;;;;;;5051048;28;42937;-84
2021/12/19 01:22:55;;;;;;;118.93;20.00;;;;;;;;;;5050382;28;44776;-83
2021/12/19 01:25:22;;;;;;;144.47;21.23;;;;;;;;;;5051413;28;42828;-84
2021/12/19 01:27:49;;;;;;;110.82;21.27;;;;;;;;;;5058518;28;44865;-85
2021/12/19 01:30:16;;;;;;;101.18;19.58;;;;;;;;;;5075239;28;43747;-84
2021/12/19 01:32:43;;;;;;;127.65;21.75;;;;;;;;;;5061829;28;43952;-84
2021/12/19 01:35:11;;;;;;;74.33;20.27;;;;;;;;;;5051003;28;45038;-84
2021/12/19 01:37:38;;;;;;;109.00;21.55;;;;;;;;;;5050212;28;42885;-83
2021/12/19 01:40:06;;;;;;;74.47;19.15;;;;;;;;;;5050106;28;45375;-84
2021/12/19 01:42:34;;;;;;;63.60;16.85;;;;;;;;;;5049701;28;44658;-84
2021/12/19 01:45:01;;;;;;;55.97;13.65;;;;;;;;;;5049885;28;44353;-84
2021/12/19 01:47:28;;;;;;;55.38;13.95;;;;;;;;;;5049167;28;44899;-84
2021/12/19 01:49:55;;;;;;;43.78;12.90;;;;;;;;;;5050364;28;43847;-84
2021/12/19 01:52:22;;;;;;;46.95;12.88;;;;;;;;;;5049232;28;44998;-84
2021/12/19 01:54:50;;;;;;;54.38;13.10;;;;;;;;;;5049629;28;43951;-84
2021/12/19 01:57:17;;;;;;;51.75;13.23;;;;;;;;;;5049881;28;42740;-83
2021/12/19 01:59:44;;;;;;;56.38;14.18;;;;;;;;;;5049196;28;45280;-83
2021/12/19 02:02:10;;;;;;;74.47;14.88;;;;;;;;;;5049923;28;44824;-83
2021/12/19 02:04:37;;;;;;;55.42;14.50;;;;;;;;;;5049321;28;45729;-84
2021/12/19 02:07:04;;;;;;;62.53;15.38;;;;;;;;;;5048174;28;44937;-83
2021/12/19 02:09:30;;;;;;;52.42;14.13;;;;;;;;;;5049861;28;45093;-85
2021/12/19 02:11:59;;;;;;;52.70;14.68;;;;;;;;;;5049684;28;45207;-84
2021/12/19 02:14:25;;;;;;;;;;;;;;;;;;5050796;28;43072;-84
2021/12/19 02:16:52;;;;;;;45.33;13.57;;;;;;;;;;5049371;28;44480;-84
2021/12/19 02:19:19;;;;;;;77.90;15.65;;;;;;;;;;5049088;28;44986;-84
2021/12/19 02:21:45;;;;;;;47.42;14.85;;;;;;;;;;5049239;28;37529;-83
2021/12/19 02:24:12;;;;;;;68.28;13.88;;;;;;;;;;5048935;28;44968;-84
2021/12/19 02:26:39;;;;;;;74.47;14.50;;;;;;;;;;5048060;28;43987;-84
2021/12/19 02:29:06;;;;;;;36.08;11.32;;;;;;;;;;5048786;28;42726;-84
2021/12/19 02:31:33;;;;;;;40.40;12.05;;;;;;;;;;5049201;28;43482;-84
2021/12/19 02:34:06;;;;;;;65.38;13.32;;;;;;;;;;5048968;28;42888;-84
2021/12/19 02:50:25;;;;;;;63.13;14.27;;;;;;;;;;5006826;28;44841;-84
2021/12/19 02:52:53;;;;;;;85.35;16.83;;;;;;;;;;5006315;28;42944;-84
2021/12/19 02:55:19;;;;;;;54.28;14.05;;;;;;;;;;5016363;28;42856;-84
2021/12/19 02:57:48;;;;;;;79.47;16.85;;;;;;;;;;5029788;28;20498;-84
2021/12/19 03:00:18;;;;;;;74.53;17.08;;;;;;;;;;5041685;28;44011;-83
2021/12/19 03:02:44;;;;;;;60.80;16.08;;;;;;;;;;5047835;28;44881;-83
2021/12/19 03:05:11;;;;;;;73.78;16.85;;;;;;;;;;5049902;28;44596;-83
2021/12/19 03:07:42;;;;;;;80.38;17.08;;;;;;;;;;5048999;28;42910;-84
2021/12/19 03:10:57;;;;;;;79.45;18.20;;;;;;;;;;5048219;28;44549;-84
2021/12/19 03:17:57;;;;;;;70.75;17.33;;;;;;;;;;5048585;28;42872;-84
2021/12/19 03:18:59;;;;;;;78.35;17.52;;;;;;;;;;5044409;28;44807;-84
2021/12/19 03:21:26;;;;;;;72.25;18.08;;;;;;;;;;5048273;28;46494;-84
2021/12/19 03:23:53;;;;;;;45.35;15.05;;;;;;;;;;5048335;28;45321;-84
2021/12/19 03:26:21;;;;;;;69.68;16.55;;;;;;;;;;5049486;28;20054;-85
2021/12/19 03:28:47;;;;;;;91.97;18.58;;;;;;;;;;5049158;28;44924;-84
2021/12/19 03:31:14;;;;;;;53.00;15.20;;;;;;;;;;5048076;28;42737;-85
2021/12/19 03:33:41;;;;;;;75.97;16.35;;;;;;;;;;5049090;28;43929;-84
2021/12/19 03:36:08;;;;;;;49.38;14.05;;;;;;;;;;5050094;28;43215;-84
2021/12/19 03:38:39;;;;;;;63.08;14.80;;;;;;;;;;5051724;28;42207;-84
2021/12/19 03:41:14;;;;;;;59.95;14.55;;;;;;;;;;5052129;28;42382;-84
2021/12/19 03:43:41;;;;;;;50.38;14.10;;;;;;;;;;5051754;28;45091;-84
2021/12/19 03:46:08;;;;;;;58.30;14.60;;;;;;;;;;5051526;28;44786;-84
2021/12/19 03:48:35;;;;;;;72.80;14.93;;;;;;;;;;5052282;28;44936;-84
2021/12/19 03:51:01;;;;;;;60.08;12.75;;;;;;;;;;5051915;28;44661;-84
2021/12/19 03:53:28;;;;;;;71.32;13.18;;;;;;;;;;5051828;28;44995;-84
2021/12/19 03:55:55;;;;;;;50.30;11.25;;;;;;;;;;5052445;28;42821;-84
2021/12/19 03:58:21;;;;;;;46.85;11.02;;;;;;;;;;5050961;28;44752;-84
2021/12/19 04:00:49;;;;;;;51.42;10.15;;;;;;;;;;5051583;28;42896;-84
2021/12/19 04:03:21;;;;;;;41.30;9.50;;;;;;;;;;5051407;28;44934;-84
2021/12/19 04:05:48;;;;;;;74.35;11.80;;;;;;;;;;5051148;28;43227;-84
2021/12/19 04:08:16;;;;;;;41.45;10.15;;;;;;;;;;5051143;28;44987;-84
2021/12/19 04:10:42;;;;;;;46.05;9.43;;;;;;;;;;5051333;28;43722;-84
2021/12/19 04:13:09;;;;;;;34.45;9.57;;;;;;;;;;5050226;28;44834;-85
2021/12/19 04:15:36;;;;;;;43.92;9.00;;;;;;;;;;5051899;28;43852;-85
2021/12/19 04:18:03;;;;;;;40.20;8.77;;;;;;;;;;5051330;28;44735;-84
2021/12/19 04:20:30;;;;;;;27.63;8.20;;;;;;;;;;5051222;28;43481;-84
2021/12/19 04:22:56;;;;;;;57.25;10.55;;;;;;;;;;5051342;28;43866;-84
2021/12/19 04:25:23;;;;;;;45.35;8.77;;;;;;;;;;5051652;28;42654;-84
2021/12/19 04:27:50;;;;;;;69.85;10.02;;;;;;;;;;5050262;28;41721;-84
2021/12/19 04:30:21;;;;;;;46.53;9.75;;;;;;;;;;5051781;28;44876;-84
2021/12/19 04:32:58;;;;;;;40.40;8.60;;;;;;;;;;5050905;28;44177;-84
2021/12/19 04:35:30;;;;;;;49.38;10.00;;;;;;;;;;5051318;28;43858;-84
2021/12/19 04:44:23;;;;;;;41.85;9.20;;;;;;;;;;5050709;28;42835;-85
2021/12/19 04:59:57;;;;;;;45.53;9.32;;;;;;;;;;5048631;28;44818;-84
2021/12/19 05:05:20;;;;;;;37.63;7.97;;;;;;;;;;5048859;28;43864;-84
2021/12/19 05:15:56;;;;;;;13.35;3.42;;;;;;;;;;5075094;28;43656;-85
2021/12/19 05:18:26;;;;;;;9.45;3.15;;;;;;;;;;5059432;28;43730;-84
2021/12/19 05:21:08;;;;;;;16.52;3.60;;;;;;;;;;5051892;28;43464;-84
2021/12/19 05:26:25;;;;;;;9.25;2.33;;;;;;;;;;5030449;28;42360;-84
2021/12/19 05:28:52;;;;;;;11.25;3.05;;;;;;;;;;5049942;28;43462;-84
2021/12/19 05:31:20;;;;;;;12.73;2.90;;;;;;;;;;5049345;28;44955;-84
2021/12/19 05:33:47;;;;;;;9.27;3.20;;;;;;;;;;5050606;28;42939;-84
2021/12/19 05:46:38;;;;;;;5.20;1.90;;;;;;;;;;5049547;28;45285;-84
2021/12/19 05:49:06;;;;;;;8.98;2.50;;;;;;;;;;5050427;28;44752;-84
2021/12/19 05:51:33;;;;;;;5.47;1.83;;;;;;;;;;5048999;28;42887;-85
2021/12/19 05:54:00;;;;;;;6.93;2.30;;;;;;;;;;5049648;28;44116;-84
2021/12/19 05:56:27;;;;;;;7.47;2.15;;;;;;;;;;5049939;28;44581;-84
2021/12/19 05:58:55;;;;;;;10.52;2.60;;;;;;;;;;5048975;28;44965;-84
2021/12/19 06:01:21;;;;;;;9.00;2.33;;;;;;;;;;5050273;28;44898;-84
2021/12/19 06:03:48;;;;;;;12.82;3.05;;;;;;;;;;5049864;28;42628;-84
2021/12/19 06:06:15;;;;;;;9.75;2.42;;;;;;;;;;5050532;28;20072;-84
2021/12/19 06:08:42;;;;;;;14.05;3.28;;;;;;;;;;5050089;28;42808;-84
2021/12/19 06:11:10;;;;;;;22.70;3.40;;;;;;;;;;5049504;28;43815;-84
2021/12/19 06:13:38;;;;;;;19.65;3.70;;;;;;;;;;5049186;28;42924;-84
2021/12/19 06:16:07;;;;;;;13.23;3.67;;;;;;;;;;5049867;28;42960;-84
2021/12/19 06:18:34;;;;;;;19.05;3.92;;;;;;;;;;5048600;28;45169;-84
2021/12/19 06:21:01;;;;;;;14.73;4.25;;;;;;;;;;5049955;28;44970;-84
2021/12/19 06:23:27;;;;;;;11.13;3.45;;;;;;;;;;5049530;28;44723;-84
2021/12/19 06:25:54;;;;;;;13.95;3.72;;;;;;;;;;5049358;28;45078;-84
2021/12/19 06:28:22;;;;;;;21.75;3.67;;;;;;;;;;5049758;28;43011;-85
2021/12/19 06:30:49;;;;;;;10.03;3.40;;;;;;;;;;5050918;28;20053;-84
2021/12/19 06:33:16;;;;;;;10.65;2.53;;;;;;;;;;5048945;28;42841;-85
2021/12/19 06:35:42;;;;;;;12.63;2.75;;;;;;;;;;5049910;28;43684;-84
2021/12/19 06:38:09;;;;;;;10.25;2.83;;;;;;;;;;5048610;28;44976;-84
2021/12/19 06:40:36;;;;;;;9.48;2.47;;;;;;;;;;5049412;28;42866;-84
2021/12/19 06:43:03;;;;;;;8.77;1.95;;;;;;;;;;5048407;28;44656;-84
2021/12/19 06:45:30;;;;;;;5.38;1.80;;;;;;;;;;5049853;28;45247;-84
2021/12/19 06:47:56;;;;;;;8.57;2.10;;;;;;;;;;5049033;28;44893;-85
2021/12/19 06:50:23;;;;;;;9.80;2.17;;;;;;;;;;5049335;28;44024;-84
2021/12/19 06:52:50;;;;;;;12.40;2.10;;;;;;;;;;5048849;28;44800;-84
2021/12/19 06:55:17;;;;;;;8.38;2.03;;;;;;;;;;5048857;28;44712;-84
2021/12/19 06:57:45;;;;;;;7.37;1.90;;;;;;;;;;5049250;28;44788;-84
2021/12/19 07:00:13;;;;;;;8.65;1.70;;;;;;;;;;5049529;28;43543;-84
2021/12/19 07:02:40;;;;;;;7.80;2.20;;;;;;;;;;5048016;28;43591;-84
2021/12/19 07:05:07;;;;;;;9.85;2.35;;;;;;;;;;5049400;28;42801;-84
2021/12/19 07:07:34;;;;;;;6.72;2.35;;;;;;;;;;5048038;28;42891;-84
2021/12/19 07:10:01;;;;;;;9.05;2.08;;;;;;;;;;5049070;28;42935;-84
2021/12/19 07:12:28;;;;;;;8.80;2.53;;;;;;;;;;5051829;28;45008;-84
2021/12/19 07:14:55;;;;;;;14.60;2.90;;;;;;;;;;5051514;28;44805;-84
2021/12/19 07:17:21;;;;;;;9.02;2.72;;;;;;;;;;5052126;28;42869;-84
2021/12/19 07:19:48;;;;;;;6.15;2.45;;;;;;;;;;5052845;28;42844;-84
2021/12/19 07:22:15;;;;;;;8.70;2.47;;;;;;;;;;5051429;28;42428;-85
2021/12/19 07:24:42;;;;;;;7.25;1.98;;;;;;;;;;5052744;28;44986;-84
2021/12/19 07:27:14;;;;;;;9.38;2.40;;;;;;;;;;5052440;28;43913;-85
2021/12/19 07:29:41;;;;;;;10.35;2.40;;;;;;;;;;5052250;28;42637;-84
2021/12/19 07:32:10;;;;;;;6.93;2.50;;;;;;;;;;5051279;28;43836;-84
2021/12/19 07:34:38;;;;;;;6.57;2.03;;;;;;;;;;5052675;28;42635;-85
2021/12/19 07:37:05;;;;;;;6.97;2.65;;;;;;;;;;5051257;28;45313;-84
2021/12/19 07:42:01;;;;;;;11.75;2.95;;;;;;;;;;5051605;28;43640;-85
2021/12/19 07:44:28;;;;;;;7.55;1.77;;;;;;;;;;5051658;28;44923;-86
2021/12/19 07:46:55;;;;;;;7.05;1.85;;;;;;;;;;5051549;28;43285;-86
2021/12/19 07:49:22;;;;;;;7.65;1.80;;;;;;;;;;5052430;28;43161;-85
2021/12/19 07:51:48;;;;;;;6.38;1.92;;;;;;;;;;5051009;28;43906;-85
2021/12/19 07:54:15;;;;;;;4.75;1.80;;;;;;;;;;5052034;28;42880;-86
2021/12/19 07:56:42;;;;;;;5.47;1.80;;;;;;;;;;5050849;28;46310;-85
2021/12/19 07:59:09;;;;;;;9.77;2.00;;;;;;;;;;5051089;28;45205;-85
2021/12/19 08:01:35;;;;;;;6.03;1.85;;;;;;;;;;5051638;28;42614;-84
2021/12/19 08:04:02;;;;;;;5.63;1.60;;;;;;;;;;5051610;28;43037;-85
2021/12/19 08:06:30;;;;;;;5.65;1.60;;;;;;;;;;5051256;28;43873;-85
2021/12/19 08:09:09;;;;;;;4.03;1.23;;;;;;;;;;5052090;28;43955;-85
2021/12/19 08:11:42;;;;;;;9.50;1.70;;;;;;;;;;5050419;28;44967;-85
2021/12/19 08:14:10;;;;;;;3.17;1.20;;;;;;;;;;5051865;28;45269;-84
2021/12/19 08:16:37;;;;;;;4.40;1.77;;;;;;;;;;5051963;28;42614;-84
2021/12/19 08:19:04;;;;;;;4.65;1.40;;;;;;;;;;5051197;28;43827;-84
2021/12/19 08:21:31;;;;;;;2.97;1.10;;;;;;;;;;5050859;28;43203;-84
2021/12/19 08:24:00;;;;;;;3.60;1.35;;;;;;;;;;5050569;28;44754;-84
2021/12/19 08:26:28;;;;;;;4.72;1.40;;;;;;;;;;5050021;28;44965;-84
2021/12/19 08:28:58;;;;;;;9.48;1.70;;;;;;;;;;5050878;28;44697;-85
2021/12/19 08:31:24;;;;;;;4.88;1.30;;;;;;;;;;5049200;28;42448;-84
2021/12/19 08:33:51;;;;;;;7.97;1.70;;;;;;;;;;5050485;28;43859;-84
2021/12/19 08:36:18;;;;;;;6.78;1.50;;;;;;;;;;5051562;28;20522;-85
2021/12/19 08:38:46;;;;;;;7.00;1.70;;;;;;;;;;5067938;28;43499;-84
2021/12/19 08:41:13;;;;;;;;;;;;;;;;;;5069465;28;43755;-85
2021/12/19 08:43:40;;;;;;;4.57;1.40;;;;;;;;;;5054267;28;44448;-85
2021/12/19 08:46:11;;;;;;;4.90;1.45;;;;;;;;;;5047432;28;44948;-85
2021/12/19 08:48:41;;;;;;;4.03;1.30;;;;;;;;;;5050717;28;43575;-85
2021/12/19 08:51:08;;;;;;;5.00;1.02;;;;;;;;;;5050818;28;45808;-85
2021/12/19 08:53:35;;;;;;;5.13;2.15;;;;;;;;;;5050779;28;45262;-85
2021/12/19 08:56:02;;;;;;;11.23;1.55;;;;;;;;;;5051811;28;43891;-84
2021/12/19 08:58:46;;;;;;;5.03;1.40;;;;;;;;;;5053563;28;20045;-84
2021/12/19 09:01:13;;;;;;;3.67;1.13;;;;;;;;;;5070636;28;23167;-84
2021/12/19 09:03:39;;;;;;;3.25;1.40;;;;;;;;;;5074732;28;43855;-85
2021/12/19 09:06:06;;;;;;;3.83;1.80;;;;;;;;;;5053599;28;42873;-84
2021/12/19 09:08:33;;;;;;;4.38;1.92;;;;;;;;;;5050818;28;42632;-84
2021/12/19 09:11:02;;;;;;;5.32;1.92;;;;;;;;;;5050181;28;44864;-84
2021/12/19 09:13:30;;;;;;;8.45;2.15;;;;;;;;;;5050882;28;44834;-87
2021/12/19 09:15:57;;;;;;;8.07;2.75;;;;;;;;;;5049203;28;43771;-83
2021/12/19 09:18:24;;;;;;;6.00;2.45;;;;;;;;;;5048658;28;44274;-83
2021/12/19 09:20:51;;;;;;;15.07;3.10;;;;;;;;;;5050766;28;43858;-84
2021/12/19 09:23:18;;;;;;;12.15;2.92;;;;;;;;;;5049490;28;43012;-84
2021/12/19 09:25:45;;;;;;;9.77;3.33;;;;;;;;;;5050207;28;43945;-84
2021/12/19 09:28:12;;;;;;;7.65;2.90;;;;;;;;;;5049106;28;44461;-83
2021/12/19 09:30:42;;;;;;;13.02;3.35;;;;;;;;;;5048623;28;44248;-84
2021/12/19 09:33:10;;;;;;;7.63;2.80;;;;;;;;;;5048746;28;46745;-83
2021/12/19 09:35:37;;;;;;;9.60;3.42;;;;;;;;;;5048514;28;41271;-83
2021/12/19 09:38:04;;;;;;;6.00;3.10;;;;;;;;;;5049818;28;44943;-83
2021/12/19 09:40:37;;;;;;;9.77;3.05;;;;;;;;;;5050574;28;42210;-87
2021/12/19 09:43:05;;;;;;;7.38;3.35;;;;;;;;;;5049259;28;42634;-85
2021/12/19 09:45:33;;;;;;;11.80;4.15;;;;;;;;;;5051327;28;42958;-84
2021/12/19 09:48:00;;;;;;;8.80;3.85;;;;;;;;;;5052035;28;20057;-88
2021/12/19 09:50:27;;;;;;;13.98;4.05;;;;;;;;;;5042889;28;42944;-87
2021/12/19 09:52:54;;;;;;;11.97;4.27;;;;;;;;;;5036219;28;44929;-89
2021/12/19 09:55:22;;;;;;;16.90;5.13;;;;;;;;;;5036668;28;44722;-85
2021/12/19 09:57:51;;;;;;;7.75;3.70;;;;;;;;;;5035599;28;44212;-86
2021/12/19 10:00:19;;;;;;;12.60;4.55;;;;;;;;;;5035969;28;43959;-86
2021/12/19 10:02:48;;;;;;;11.80;3.60;;;;;;;;;;5038428;28;44626;-87
2021/12/19 10:05:17;;;;;;;19.27;4.68;;;;;;;;;;5035802;28;44912;-86
2021/12/19 10:07:45;;;;;;;18.23;4.05;;;;;;;;;;5035089;28;44670;-88
2021/12/19 10:10:23;;;;;;;13.45;4.50;;;;;;;;;;5035721;28;45340;-89
2021/12/19 10:12:57;;;;;;;17.27;4.70;;;;;;;;;;5036060;28;20045;-88
2021/12/19 10:15:34;;;;;;;15.90;4.53;;;;;;;;;;5037311;28;43659;-85
2021/12/19 10:18:11;;;;;;;21.35;4.88;;;;;;;;;;5035925;28;42898;-85
2021/12/19 10:20:43;;;;;;;15.35;4.90;;;;;;;;;;5037414;28;43954;-86
2021/12/19 10:23:17;;;;;;;22.17;5.68;;;;;;;;;;5038068;28;23516;-86
2021/12/19 10:25:53;;;;;;;27.25;7.43;;;;;;;;;;5030059;28;45233;-87
2021/12/19 10:28:21;;;;;;;30.88;5.78;;;;;;;;;;5028007;28;42468;-87
2021/12/19 10:30:49;;;;;;;26.27;6.25;;;;;;;;;;5028366;28;44137;-87
2021/12/19 10:33:19;;;;;;;23.40;5.45;;;;;;;;;;5027567;28;44879;-86
2021/12/19 10:35:49;;;;;;;18.10;4.90;;;;;;;;;;5029379;28;44871;-88
2021/12/19 10:38:17;;;;;;;18.85;5.10;;;;;;;;;;5032537;28;43927;-86
2021/12/19 10:40:45;;;;;;;11.38;4.68;;;;;;;;;;5033066;28;45039;-86
2021/12/19 10:43:16;;;;;;;13.73;5.07;;;;;;;;;;5035550;28;43383;-87
2021/12/19 10:45:43;;;;;;;15.75;5.07;;;;;;;;;;5036399;28;44377;-86
2021/12/19 10:48:42;;;;;;;15.70;5.18;;;;;;;;;;5035557;28;20060;-86
2021/12/19 10:51:15;;;;;;;15.13;5.53;;;;;;;;;;5011653;28;42736;-86
2021/12/19 10:53:52;;;;;;;21.58;5.97;;;;;;;;;;5033858;28;44003;-86
2021/12/19 10:56:20;;;;;;;29.17;6.00;;;;;;;;;;5036076;28;44772;-86
2021/12/19 10:58:52;;;;;;;14.25;4.53;;;;;;;;;;5033186;28;43745;-86
2021/12/19 11:01:38;;;;;;;17.35;5.75;;;;;;;;;;5037116;28;44895;-88
2021/12/19 11:04:10;;;;;;;23.05;5.72;;;;;;;;;;5044791;28;44940;-85
2021/12/19 11:06:39;;;;;;;24.70;6.10;;;;;;;;;;5065365;28;45200;-87
2021/12/19 11:09:06;;;;;;;19.77;5.78;;;;;;;;;;5065839;28;42495;-86
2021/12/19 11:11:35;;;;;;;15.55;5.10;;;;;;;;;;5047025;28;44710;-87
2021/12/19 11:14:03;;;;;;;14.45;5.00;;;;;;;;;;5045407;28;44079;-86
2021/12/19 11:16:30;;;;;;;15.00;5.03;;;;;;;;;;5026574;28;43689;-87
2021/12/19 11:18:57;;;;;;;16.38;5.20;;;;;;;;;;5028001;28;42920;-86
2021/12/19 11:21:25;;;;;;;14.45;5.65;;;;;;;;;;5026216;28;43863;-86
2021/12/19 11:23:51;;;;;;;17.00;5.15;;;;;;;;;;5026854;28;44673;-86
2021/12/19 11:26:20;;;;;;;27.70;5.88;;;;;;;;;;5027188;28;45045;-86
2021/12/19 11:28:48;;;;;;;18.10;6.10;;;;;;;;;;5027032;28;43002;-86
2021/12/19 11:31:15;;;;;;;;;;;;;;;;;;5029533;28;42695;-89
2021/12/19 11:34:00;;;;;;;21.15;5.30;;;;;;;;;;5028708;28;43787;-86
2021/12/19 11:36:31;;;;;;;18.67;5.75;;;;;;;;;;5026936;28;20096;-86
2021/12/19 11:38:59;;;;;;;34.65;6.63;;;;;;;;;;5013490;28;44075;-85
2021/12/19 11:41:27;;;;;;;27.60;6.03;;;;;;;;;;5013398;28;44060;-86
2021/12/19 11:43:56;;;;;;;27.92;6.32;;;;;;;;;;5015658;28;43600;-86
2021/12/19 11:46:43;;;;;;;22.77;6.20;;;;;;;;;;5015470;28;44967;-84
2021/12/19 11:49:18;;;;;;;20.77;6.43;;;;;;;;;;5013401;28;45360;-86
2021/12/19 11:51:45;;;;;;;22.02;6.80;;;;;;;;;;5013326;28;43611;-86
2021/12/19 11:54:18;;;;;;;22.45;5.40;;;;;;;;;;5016158;28;45285;-86
2021/12/19 11:57:00;;;;;;;;;;;;;;;;;;5016863;28;44967;-85
2021/12/19 11:59:26;;;;;;;16.67;4.90;;;;;;;;;;5019675;28;45092;-85
2021/12/19 12:01:53;;;;;;;17.65;4.68;;;;;;;;;;5016576;28;43915;-86
2021/12/19 12:04:21;;;;;;;15.38;4.05;;;;;;;;;;5017985;28;44567;-85
2021/12/19 12:06:48;;;;;;;;;;;;;;;;;;5019147;28;44634;-86
2021/12/19 12:09:26;;;;;;;26.83;5.45;;;;;;;;;;5020247;28;44822;-85
2021/12/19 12:11:59;;;;;;;15.48;3.85;;;;;;;;;;5037672;28;45070;-86
2021/12/19 12:14:28;;;;;;;15.27;4.25;;;;;;;;;;5037286;28;42741;-85
2021/12/19 12:16:56;;;;;;;12.00;3.85;;;;;;;;;;5036502;28;43933;-85
2021/12/19 12:19:35;;;;;;;24.95;5.75;;;;;;;;;;5038235;28;42506;-85
2021/12/19 12:22:23;;;;;;;16.35;4.22;;;;;;;;;;5038530;28;42661;-86
2021/12/19 12:25:02;;;;;;;14.85;4.60;;;;;;;;;;5034033;28;43631;-85
2021/12/19 12:27:42;;;;;;;12.55;3.88;;;;;;;;;;5034738;28;45225;-86
2021/12/19 12:30:17;;;;;;;27.55;4.85;;;;;;;;;;5043356;28;45154;-89
2021/12/19 12:32:44;;;;;;;19.15;4.90;;;;;;;;;;5046349;28;43654;-85
2021/12/19 12:35:21;;;;;;;15.23;4.25;;;;;;;;;;5059073;28;20106;-85
2021/12/19 12:37:50;;;;;;;14.25;4.63;;;;;;;;;;5068736;28;43874;-86
2021/12/19 12:41:08;;;;;;;18.17;3.97;;;;;;;;;;5057391;28;42679;-86
2021/12/19 12:43:09;;;;;;;16.23;4.65;;;;;;;;;;5057086;28;43917;-89
2021/12/19 12:45:48;;;;;;;10.52;3.38;;;;;;;;;;5074147;28;43731;-86
2021/12/19 12:48:25;;;;;;;15.88;3.70;;;;;;;;;;5051688;28;43392;-86
2021/12/19 12:50:52;;;;;;;21.85;4.60;;;;;;;;;;5049787;28;44989;-85
2021/12/19 12:53:32;;;;;;;19.27;4.25;;;;;;;;;;5045037;28;44734;-85
2021/12/19 12:56:05;;;;;;;13.43;3.30;;;;;;;;;;5049210;28;43878;-85
2021/12/19 12:58:36;;;;;;;8.30;3.90;;;;;;;;;;5048583;28;43672;-85
2021/12/19 13:01:16;;;;;;;16.08;4.47;;;;;;;;;;5045945;28;44585;-84
2021/12/19 13:04:01;;;;;;;11.95;3.78;;;;;;;;;;5047509;28;43849;-85
2021/12/19 13:06:34;;;;;;;15.18;3.70;;;;;;;;;;5049742;28;35314;-85
2021/12/19 13:09:27;;;;;;;17.17;3.60;;;;;;;;;;5049781;28;45547;-84
2021/12/19 13:12:01;;;;;;;10.15;3.53;;;;;;;;;;5058569;28;45465;-85
2021/12/19 13:14:30;;;;;;;11.18;3.47;;;;;;;;;;5048328;28;43351;-85
2021/12/19 13:16:59;;;;;;;20.58;4.47;;;;;;;;;;5033461;28;43898;-85
2021/12/19 13:19:33;;;;;;;17.27;4.45;;;;;;;;;;5034627;28;45694;-85
2021/12/19 13:22:00;;;;;;;13.15;4.38;;;;;;;;;;5039063;28;44954;-85
2021/12/19 13:24:26;;;;;;;17.33;5.05;;;;;;;;;;5036935;28;45273;-85
2021/12/19 13:27:22;;;;;;;15.88;4.82;;;;;;;;;;5037417;28;44061;-85
2021/12/19 13:30:04;;;;;;;18.20;4.40;;;;;;;;;;5040010;28;42294;-84
2021/12/19 13:32:31;;;;;;;20.98;5.15;;;;;;;;;;5037849;28;44296;-85
2021/12/19 13:34:58;;;;;;;11.23;3.67;;;;;;;;;;5033412;28;44738;-84
2021/12/19 13:37:25;;;;;;;16.83;4.22;;;;;;;;;;5037384;28;43797;-84
2021/12/19 13:40:03;;;;;;;14.77;3.45;;;;;;;;;;5034539;28;45119;-84
2021/12/19 13:42:37;;;;;;;18.42;4.03;;;;;;;;;;5035384;28;44535;-85
2021/12/19 13:45:23;;;;;;;13.50;3.50;;;;;;;;;;5037534;28;43161;-84
2021/12/19 13:47:50;;;;;;;14.77;3.47;;;;;;;;;;5034496;28;44992;-84
2021/12/19 13:50:17;;;;;;;18.17;4.30;;;;;;;;;;5034656;28;44046;-84
2021/12/19 13:52:44;;;;;;;7.43;3.60;;;;;;;;;;5037562;28;43945;-84
2021/12/19 13:55:12;;;;;;;6.93;3.30;;;;;;;;;;5036377;28;45032;-84
2021/12/19 13:57:39;;;;;;;16.92;4.20;;;;;;;;;;5036532;28;20045;-85
2021/12/19 14:00:32;;;;;;;11.52;3.13;;;;;;;;;;5034895;28;44658;-84
2021/12/19 14:02:59;;;;;;;11.93;3.35;;;;;;;;;;5035025;28;43666;-83
2021/12/19 14:05:30;;;;;;;8.10;3.45;;;;;;;;;;5035964;28;44949;-84
2021/12/19 14:07:57;;;;;;;10.23;3.55;;;;;;;;;;5036071;28;42824;-85
2021/12/19 14:10:24;;;;;;;9.52;3.47;;;;;;;;;;5033348;28;42711;-85
2021/12/19 14:13:05;;;;;;;12.45;3.65;;;;;;;;;;5039174;28;45012;-84
2021/12/19 14:15:33;;;;;;;7.80;3.00;;;;;;;;;;5041960;28;44752;-85
2021/12/19 14:18:20;;;;;;;11.95;3.05;;;;;;;;;;5034821;28;42458;-84
2021/12/19 14:20:47;;;;;;;9.75;3.75;;;;;;;;;;5039198;28;20054;-85
2021/12/19 14:23:17;;;;;;;9.38;3.08;;;;;;;;;;5036138;28;43686;-84
2021/12/19 14:25:44;;;;;;;12.35;2.90;;;;;;;;;;5037526;28;44970;-85
2021/12/19 14:28:18;;;;;;;15.45;3.13;;;;;;;;;;5034054;28;43814;-85
2021/12/19 14:30:55;;;;;;;8.35;2.97;;;;;;;;;;5037587;28;43669;-84
2021/12/19 14:33:35;;;;;;;11.30;4.10;;;;;;;;;;5036516;28;43955;-84
2021/12/19 14:36:05;;;;;;;10.45;3.28;;;;;;;;;;5036814;28;43896;-84
2021/12/19 14:38:32;;;;;;;9.75;2.92;;;;;;;;;;5035781;28;42429;-85
2021/12/19 14:41:00;;;;;;;11.13;3.00;;;;;;;;;;5037178;28;45328;-84
2021/12/19 14:43:28;;;;;;;10.13;3.30;;;;;;;;;;5036748;28;46063;-84
2021/12/19 14:45:57;;;;;;;13.60;3.65;;;;;;;;;;5036010;28;45065;-85
2021/12/19 14:48:40;;;;;;;10.02;2.67;;;;;;;;;;5036558;28;45465;-85
2021/12/19 14:51:21;;;;;;;16.65;3.00;;;;;;;;;;5038030;28;42195;-84
2021/12/19 14:53:47;;;;;;;7.20;2.92;;;;;;;;;;5036412;28;45013;-85
2021/12/19 14:56:16;;;;;;;14.32;3.45;;;;;;;;;;5036377;28;44797;-84
2021/12/19 14:58:52;;;;;;;10.20;3.30;;;;;;;;;;5038490;28;43683;-85
2021/12/19 15:01:27;;;;;;;14.18;3.70;;;;;;;;;;5037752;28;44791;-84
2021/12/19 15:04:00;;;;;;;10.90;3.55;;;;;;;;;;5038748;28;20093;-86
2021/12/19 15:06:38;;;;;;;13.32;3.97;;;;;;;;;;5034125;28;44944;-85
2021/12/19 15:09:13;;;;;;;13.00;4.10;;;;;;;;;;5038836;28;20136;-85
2021/12/19 15:11:40;;;;;;;20.83;3.45;;;;;;;;;;5037589;28;44801;-85
2021/12/19 15:14:08;;;;;;;19.85;3.95;;;;;;;;;;5036542;28;45013;-85
2021/12/19 15:16:35;;;;;;;15.32;3.72;;;;;;;;;;5036223;28;43180;-85
2021/12/19 15:19:07;;;;;;;18.88;3.78;;;;;;;;;;5038966;28;40172;-85
2021/12/19 15:21:37;;;;;;;10.60;3.22;;;;;;;;;;5038237;28;20076;-85
2021/12/19 15:24:07;;;;;;;16.67;3.55;;;;;;;;;;5037153;28;43767;-85
2021/12/19 15:26:34;;;;;;;11.25;3.65;;;;;;;;;;5034896;28;44253;-86
2021/12/19 15:29:03;;;;;;;16.70;4.20;;;;;;;;;;5038375;28;42879;-84
2021/12/19 15:31:30;;;;;;;11.10;3.38;;;;;;;;;;5036908;28;42372;-85
2021/12/19 15:34:00;;;;;;;19.85;3.60;;;;;;;;;;5039541;28;42668;-84
2021/12/19 15:36:27;;;;;;;14.68;3.88;;;;;;;;;;5039557;28;42930;-84
2021/12/19 15:38:54;;;;;;;15.02;3.53;;;;;;;;;;5040362;28;43683;-84
2021/12/19 15:41:22;;;;;;;21.73;4.27;;;;;;;;;;5040306;28;43949;-83
2021/12/19 15:43:48;;;;;;;15.88;3.65;;;;;;;;;;5039293;28;43659;-84
2021/12/19 15:46:18;;;;;;;18.90;3.53;;;;;;;;;;5039026;28;45087;-84
2021/12/19 15:48:44;;;;;;;18.83;4.32;;;;;;;;;;5039953;28;42948;-84
2021/12/19 15:51:13;;;;;;;13.77;3.47;;;;;;;;;;5041634;28;21108;-84
2021/12/19 15:53:39;;;;;;;15.57;4.35;;;;;;;;;;5040476;28;43951;-84
2021/12/19 15:56:06;;;;;;;22.52;4.30;;;;;;;;;;5037398;28;45260;-84
2021/12/19 15:58:36;;;;;;;12.07;4.18;;;;;;;;;;5039540;28;44798;-85